Time;durP1;ratioP1;P1;durP2;ratioP2;P2;SDS_P1;SDS_P2;PMS_P1;PMS_P2;Temp;Humidity;BMP_temperature;BMP_pressure;BME280_temperature;BME280_humidity;BME280_pressure;Samples;Min_cycle;Max_cycle;Signal;HPM_P1;HPM_P2
2021/12/25 00:00:01;;;;;;;20.45;7.60;;;;;;;18.72;51.12;100728.72;5029968;28;20052;-78
2021/12/25 00:02:27;;;;;;;22.92;7.63;;;;;;;18.71;50.94;100726.19;5012233;28;20478;-78
2021/12/25 00:04:53;;;;;;;23.55;8.32;;;;;;;18.65;51.09;100719.63;5029990;28;20053;-78
2021/12/25 00:07:19;;;;;;;24.98;8.00;;;;;;;18.68;50.65;100726.47;5029545;28;20505;-78
2021/12/25 00:09:44;;;;;;;17.65;7.47;;;;;;;18.67;50.43;100728.25;4994794;28;20072;-78
2021/12/25 00:12:10;;;;;;;19.38;7.13;;;;;;;18.60;50.98;100729.00;5011465;28;20549;-77
2021/12/25 00:14:35;;;;;;;21.58;7.72;;;;;;;18.65;50.74;100738.22;5011685;28;20034;-77
2021/12/25 00:17:01;;;;;;;22.17;7.43;;;;;;;18.62;50.63;100737.66;5028916;28;20548;-75
2021/12/25 00:19:26;;;;;;;17.58;6.43;;;;;;;18.57;50.39;100724.78;5015393;28;20041;-77
2021/12/25 00:21:52;;;;;;;19.08;6.90;;;;;;;18.55;50.64;100724.13;5029094;28;20072;-76
2021/12/25 00:24:17;;;;;;;20.65;6.88;;;;;;;18.58;50.57;100723.78;5010797;28;20544;-77
2021/12/25 00:26:54;;;;;;;17.63;6.20;;;;;;;18.52;49.85;100728.84;4994649;28;20514;-77
2021/12/25 00:29:54;;;;;;;16.73;6.63;;;;;;;18.50;50.46;100726.34;5012739;28;20061;-77
2021/12/25 00:34:48;;;;;;;18.10;6.35;;;;;;;18.46;50.28;100728.44;5028985;28;20045;-77
2021/12/25 00:37:14;;;;;;;13.60;5.90;;;;;;;18.45;50.34;100729.41;5010295;28;20096;-77
2021/12/25 00:39:39;;;;;;;18.23;6.47;;;;;;;18.46;49.96;100735.59;5011609;28;20069;-77
2021/12/25 00:42:06;;;;;;;13.52;5.78;;;;;;;18.46;50.49;100733.75;5011160;28;20037;-77
2021/12/25 00:44:32;;;;;;;15.70;6.32;;;;;;;18.40;50.33;100729.00;5029138;28;20081;-77
2021/12/25 00:46:57;;;;;;;15.32;6.10;;;;;;;18.38;50.13;100740.75;5028810;28;20034;-77
2021/12/25 00:49:24;;;;;;;14.23;5.90;;;;;;;18.38;49.78;100740.75;5010162;28;20064;-77
2021/12/25 00:51:49;;;;;;;12.65;5.13;;;;;;;18.42;49.77;100748.28;4995076;28;20046;-77
2021/12/25 00:54:15;;;;;;;16.92;5.70;;;;;;;18.34;49.80;100747.31;5028068;28;20493;-77
2021/12/25 00:56:41;;;;;;;12.70;5.20;;;;;;;18.38;49.53;100746.06;5028568;28;20095;-78
2021/12/25 00:59:06;;;;;;;12.68;5.35;;;;;;;18.33;49.81;100742.97;4993664;28;20041;-77
2021/12/25 01:01:32;;;;;;;11.18;4.75;;;;;;;18.30;49.59;100746.78;5010997;28;20513;-78
2021/12/25 01:03:57;;;;;;;12.63;4.78;;;;;;;18.34;50.02;100744.66;5028505;28;20087;-78
2021/12/25 01:06:22;;;;;;;11.73;4.72;;;;;;;18.28;49.28;100751.38;5028141;28;20033;-77
2021/12/25 01:08:48;;;;;;;12.27;4.50;;;;;;;18.29;49.63;100755.69;5010586;28;20072;-77
2021/12/25 01:11:13;;;;;;;13.20;4.80;;;;;;;18.26;49.75;100755.97;5010342;28;20045;-77
2021/12/25 01:13:45;;;;;;;12.85;5.20;;;;;;;18.26;49.53;100758.63;4994927;28;20528;-78
2021/12/25 01:19:02;;;;;;;11.63;4.75;;;;;;;18.25;49.39;100763.09;5023879;28;20056;-77
2021/12/25 01:22:01;;;;;;;9.63;4.20;;;;;;;18.22;49.67;100770.53;5011904;28;20396;-77
2021/12/25 01:25:16;;;;;;;12.57;4.70;;;;;;;18.20;49.24;100762.66;5027339;28;20084;-78
2021/12/25 01:29:54;;;;;;;8.95;4.05;;;;;;;18.12;49.67;100759.06;5028294;28;20052;-76
2021/12/25 01:37:58;;;;;;;10.73;4.28;;;;;;;18.12;49.46;100748.44;4998958;28;20456;-78
2021/12/25 01:48:02;;;;;;;10.20;4.18;;;;;;;18.06;49.04;100752.47;4999006;28;20129;-78
2021/12/25 01:50:27;;;;;;;9.07;4.38;;;;;;;18.07;49.15;100748.00;5030088;28;20120;-78
2021/12/25 01:52:53;;;;;;;10.68;4.15;;;;;;;18.08;48.89;100745.19;5032228;28;20053;-78
2021/12/25 01:55:25;;;;;;;8.93;4.30;;;;;;;18.07;49.17;100748.00;5009392;28;20461;-78
2021/12/25 01:57:50;;;;;;;7.28;3.50;;;;;;;18.07;49.40;100750.66;5034487;28;20114;-78
2021/12/25 02:00:31;;;;;;;10.18;3.70;;;;;;;18.07;48.48;100753.31;5033712;28;20052;-78
2021/12/25 02:02:56;;;;;;;7.85;3.80;;;;;;;18.03;48.93;100752.75;5051927;28;20099;-78
2021/12/25 02:05:22;;;;;;;7.30;3.50;;;;;;;18.04;48.69;100754.41;5039276;28;20057;-78
2021/12/25 02:07:49;;;;;;;10.48;3.95;;;;;;;18.04;48.82;100757.06;5032026;28;20033;-77
2021/12/25 02:10:14;;;;;;;7.63;3.67;;;;;;;18.03;49.12;100752.75;5013447;28;20037;-78
2021/12/25 02:12:40;;;;;;;7.07;3.35;;;;;;;18.02;49.15;100761.69;5031997;28;20064;-78
2021/12/25 02:15:10;;;;;;;8.77;3.30;;;;;;;17.99;48.88;100761.97;5012930;28;20437;-78
2021/12/25 02:17:53;;;;;;;9.45;3.67;;;;;;;17.96;48.72;100757.78;5018163;28;20052;-78
2021/12/25 02:20:25;;;;;;;7.75;3.58;;;;;;;18.01;48.44;100760.00;5018991;28;20041;-78
2021/12/25 02:22:54;;;;;;;7.10;3.60;;;;;;;17.97;49.01;100763.91;5034514;28;20037;-77
2021/12/25 02:25:21;;;;;;;7.78;3.55;;;;;;;17.98;48.79;100757.63;5022614;28;20038;-78
2021/12/25 02:27:46;;;;;;;6.47;3.42;;;;;;;17.95;48.64;100760.53;5031498;28;20041;-78
2021/12/25 02:30:12;;;;;;;6.82;3.50;;;;;;;17.93;48.68;100752.75;5030903;28;20433;-78
2021/12/25 02:32:37;;;;;;;7.60;3.70;;;;;;;17.90;48.72;100752.19;5031655;28;20067;-78
2021/12/25 02:35:03;;;;;;;7.35;3.25;;;;;;;17.87;48.94;100741.84;5030828;28;20075;-76
2021/12/25 02:37:28;;;;;;;8.10;3.60;;;;;;;17.92;48.76;100756.34;5013052;28;20577;-77
2021/12/25 02:39:54;;;;;;;9.50;3.30;;;;;;;17.93;48.75;100757.22;5031341;28;20631;-77
2021/12/25 02:42:20;;;;;;;6.82;3.33;;;;;;;17.91;48.93;100744.06;5013244;28;20472;-78
2021/12/25 02:44:46;;;;;;;6.45;3.58;;;;;;;17.90;48.74;100742.41;5013686;28;20042;-77
2021/12/25 02:47:19;;;;;;;8.07;3.30;;;;;;;17.90;48.74;100749.53;5030244;28;20039;-78
2021/12/25 02:49:51;;;;;;;6.68;3.30;;;;;;;17.89;48.90;100751.31;5030632;28;20123;-77
2021/12/25 02:52:16;;;;;;;6.78;3.28;;;;;;;17.89;48.38;100755.78;5030493;28;20042;-76
2021/12/25 02:54:43;;;;;;;6.85;3.35;;;;;;;17.89;48.35;100755.78;4997034;28;20042;-77
2021/12/25 02:57:09;;;;;;;6.82;3.30;;;;;;;17.86;48.29;100756.91;5030352;28;20037;-77
2021/12/25 02:59:35;;;;;;;7.60;3.25;;;;;;;17.85;48.87;100765.00;5013155;28;20057;-77
2021/12/25 03:02:14;;;;;;;6.75;3.20;;;;;;;17.84;48.58;100766.81;5013167;28;20063;-77
2021/12/25 03:04:40;;;;;;;6.00;2.78;;;;;;;17.80;48.48;100768.09;5006319;28;20057;-77
2021/12/25 03:07:06;;;;;;;5.63;3.10;;;;;;;17.77;48.72;100776.31;4996675;28;20124;-77
2021/12/25 03:09:32;;;;;;;6.80;3.53;;;;;;;17.74;48.58;100777.38;5030008;28;20129;-78
2021/12/25 03:11:57;;;;;;;6.88;3.15;;;;;;;17.75;48.19;100770.25;5013421;28;20132;-78
2021/12/25 03:14:36;;;;;;;8.27;3.40;;;;;;;17.74;48.23;100774.72;5012505;28;20389;-77
2021/12/25 03:17:02;;;;;;;5.97;3.15;;;;;;;17.72;48.10;100781.16;5014576;28;20094;-76
2021/12/25 03:19:32;;;;;;;6.75;3.13;;;;;;;17.71;48.26;100780.31;5037716;28;20042;-78
2021/12/25 03:21:59;;;;;;;6.95;3.00;;;;;;;17.72;48.33;100781.16;5030106;28;20038;-78
2021/12/25 03:24:25;;;;;;;8.98;3.13;;;;;;;17.69;48.44;100782.25;5012247;28;20547;-78
2021/12/25 03:26:54;;;;;;;5.60;2.65;;;;;;;17.70;48.39;100786.56;5012607;28;20065;-77
2021/12/25 03:29:20;;;;;;;6.65;3.00;;;;;;;17.69;48.05;100784.91;5029398;28;20073;-77
2021/12/25 03:31:45;;;;;;;6.63;3.00;;;;;;;17.67;47.64;100789.50;5012604;28;20045;-77
2021/12/25 03:34:11;;;;;;;5.13;2.97;;;;;;;17.69;47.98;100792.84;4995621;28;20053;-76
2021/12/25 03:36:38;;;;;;;6.30;2.90;;;;;;;17.65;48.09;100804.72;5029953;28;20059;-77
2021/12/25 03:39:04;;;;;;;6.32;2.92;;;;;;;17.62;48.08;100807.66;5029644;28;20064;-77
2021/12/25 03:41:29;;;;;;;7.03;3.00;;;;;;;17.61;48.13;100805.09;5012486;28;20092;-77
2021/12/25 03:43:56;;;;;;;5.88;2.97;;;;;;;17.62;47.87;100820.06;5030608;28;20050;-77
2021/12/25 03:46:22;;;;;;;6.93;3.15;;;;;;;17.63;47.92;100813.78;5029898;28;20041;-77
2021/12/25 03:59:28;;;;;;;6.47;3.10;;;;;;;17.55;47.60;100827.72;5029353;28;20117;-76
2021/12/25 04:01:58;;;;;;;5.55;2.90;;;;;;;17.51;47.82;100828.94;5029773;28;20537;-76
2021/12/25 04:04:46;;;;;;;4.57;2.53;;;;;;;17.50;48.14;100836.06;5012131;28;20042;-76
2021/12/25 04:07:58;;;;;;;6.68;2.70;;;;;;;17.47;48.34;100841.63;5001086;28;20045;-77
2021/12/25 04:10:04;;;;;;;5.57;2.60;;;;;;;17.46;47.52;100841.78;5011297;28;20048;-76
2021/12/25 04:12:29;;;;;;;5.35;2.40;;;;;;;17.45;48.09;100837.44;5011428;28;20044;-77
2021/12/25 04:14:55;;;;;;;6.05;2.90;;;;;;;17.44;47.62;100830.44;5011363;28;20037;-77
2021/12/25 04:17:20;;;;;;;5.43;2.72;;;;;;;17.46;47.80;100841.78;5013069;28;20401;-77
2021/12/25 04:19:45;;;;;;;3.83;2.25;;;;;;;17.44;47.77;100838.41;5049568;28;20119;-77
2021/12/25 04:22:18;;;;;;;5.72;2.63;;;;;;;17.42;47.41;100848.28;5049021;28;20142;-77
2021/12/25 04:24:45;;;;;;;5.53;2.60;;;;;;;17.41;47.63;100849.28;5032758;28;20087;-77
2021/12/25 04:27:14;;;;;;;5.60;2.47;;;;;;;17.41;47.78;100838.66;5026717;28;20124;-77
2021/12/25 04:29:46;;;;;;;5.30;2.42;;;;;;;17.39;47.85;100853.84;5028319;28;20525;-77
2021/12/25 04:32:58;;;;;;;5.95;2.67;;;;;;;17.34;48.09;100856.91;4996837;28;20065;-77
2021/12/25 05:02:48;;;;;;;5.25;2.28;;;;;;;17.24;47.57;100870.13;5028257;28;20076;-77
2021/12/25 05:05:00;;;;;;;3.38;1.60;;;;;;;17.22;47.39;100871.22;5013600;28;20052;-77
2021/12/25 05:07:25;;;;;;;4.38;1.88;;;;;;;17.20;47.79;100876.63;5027733;28;20571;-77
2021/12/25 05:09:51;;;;;;;4.82;1.70;;;;;;;17.21;47.22;100878.34;5027937;28;20041;-77
2021/12/25 05:12:16;;;;;;;4.78;1.88;;;;;;;17.18;47.19;100873.28;5010494;28;20609;-77
2021/12/25 05:14:42;;;;;;;4.72;1.70;;;;;;;17.16;47.09;100883.16;5028274;28;20038;-77
2021/12/25 05:17:08;;;;;;;3.95;1.98;;;;;;;17.15;47.25;100884.16;5010190;28;20060;-77
2021/12/25 05:19:33;;;;;;;3.55;1.55;;;;;;;17.17;47.42;100891.97;5030008;28;20090;-77
2021/12/25 05:21:59;;;;;;;2.60;1.30;;;;;;;17.17;47.07;100892.78;5030314;28;20080;-77
2021/12/25 05:24:24;;;;;;;2.95;1.48;;;;;;;17.18;47.27;100885.72;5028931;28;20037;-77
2021/12/25 05:26:50;;;;;;;4.07;1.90;;;;;;;17.15;47.34;100899.22;5048260;28;20079;-77
2021/12/25 05:29:23;;;;;;;4.20;1.80;;;;;;;17.10;47.07;100897.78;5047605;28;20045;-77
2021/12/25 05:31:48;;;;;;;4.32;1.70;;;;;;;17.10;46.70;100894.28;5048289;28;20049;-76
2021/12/25 05:34:15;;;;;;;2.92;1.30;;;;;;;17.08;47.06;100898.91;5047562;28;20102;-76
2021/12/25 05:36:40;;;;;;;2.83;1.33;;;;;;;17.09;46.37;100896.09;5024871;28;20515;-77
2021/12/25 05:39:09;;;;;;;3.58;1.40;;;;;;;17.10;46.77;100899.59;5010193;28;20045;-77
2021/12/25 05:41:35;;;;;;;3.15;1.40;;;;;;;17.11;46.50;100906.59;5028257;28;20047;-77
2021/12/25 05:44:00;;;;;;;3.38;1.55;;;;;;;17.12;46.45;100897.66;5027879;28;20055;-70
2021/12/25 05:46:26;;;;;;;4.22;1.25;;;;;;;17.15;46.38;100888.63;5028258;28;20507;-77
2021/12/25 05:48:51;;;;;;;2.70;1.20;;;;;;;17.20;46.61;100899.66;5010630;28;20132;-77
2021/12/25 05:51:17;;;;;;;3.20;1.27;;;;;;;17.22;46.00;100890.59;5027606;28;20089;-77
2021/12/25 05:53:42;;;;;;;2.97;1.25;;;;;;;17.32;45.96;100898.63;5010313;28;20047;-77
2021/12/25 05:56:08;;;;;;;2.47;1.20;;;;;;;17.40;46.45;100895.34;5009893;28;20125;-77
2021/12/25 05:58:33;;;;;;;2.80;1.15;;;;;;;17.47;45.97;100904.44;5010101;28;20045;-77
2021/12/25 06:00:59;;;;;;;3.40;1.38;;;;;;;17.52;46.11;100912.88;5027984;28;20498;-77
2021/12/25 06:03:24;;;;;;;2.60;1.00;;;;;;;17.57;45.79;100922.09;5027535;28;20113;-77
2021/12/25 06:05:50;;;;;;;3.03;1.10;;;;;;;17.64;46.15;100924.22;5026790;28;20053;-77
2021/12/25 06:08:15;;;;;;;2.05;0.90;;;;;;;17.69;46.25;100922.03;5027692;28;20029;-77
2021/12/25 06:10:41;;;;;;;2.95;1.05;;;;;;;17.77;45.86;100931.06;4994184;28;20046;-77
2021/12/25 06:13:09;;;;;;;3.13;1.10;;;;;;;17.87;46.22;100932.91;4994121;28;20069;-76
2021/12/25 06:15:36;;;;;;;2.65;1.10;;;;;;;17.97;45.81;100942.59;5009786;28;20042;-77
2021/12/25 06:18:01;;;;;;;2.65;0.80;;;;;;;18.04;45.92;100934.94;5034538;28;20560;-76
2021/12/25 06:20:27;;;;;;;3.58;0.85;;;;;;;18.16;45.81;100946.31;5047820;28;20120;-77
2021/12/25 06:22:52;;;;;;;2.25;0.90;;;;;;;18.22;45.36;100946.59;5029930;28;20548;-77
2021/12/25 06:25:18;;;;;;;3.03;1.20;;;;;;;18.30;45.83;100953.06;5029299;28;20079;-77
2021/12/25 06:27:43;;;;;;;1.20;0.70;;;;;;;18.35;45.89;100953.50;5029790;28;20044;-78
2021/12/25 06:30:09;;;;;;;2.08;0.80;;;;;;;18.43;45.92;100956.34;5046940;28;20456;-77
2021/12/25 06:32:35;;;;;;;1.98;0.80;;;;;;;18.45;46.01;100949.88;5047317;28;20037;-77
2021/12/25 06:35:00;;;;;;;1.60;0.80;;;;;;;18.47;45.67;100953.25;5029483;28;20075;-77
2021/12/25 06:37:26;;;;;;;1.50;0.60;;;;;;;18.51;45.52;100953.81;5035083;28;20044;-77
2021/12/25 06:39:51;;;;;;;1.80;0.80;;;;;;;18.54;45.32;100956.22;5031405;28;20136;-77
2021/12/25 06:42:16;;;;;;;2.83;0.70;;;;;;;18.57;45.36;100968.38;5013190;28;20051;-77
2021/12/25 06:44:42;;;;;;;1.85;0.77;;;;;;;18.59;45.46;100967.28;4997204;28;20493;-77
2021/12/25 06:47:08;;;;;;;2.58;0.80;;;;;;;18.63;45.20;100967.84;5030377;28;20124;-77
2021/12/25 06:49:33;;;;;;;1.88;0.70;;;;;;;18.62;45.84;100959.03;5030572;28;20379;-77
2021/12/25 06:51:59;;;;;;;1.60;0.68;;;;;;;18.61;45.63;100960.00;5030961;28;20119;-77
2021/12/25 06:54:24;;;;;;;1.88;0.60;;;;;;;18.65;45.45;100961.41;5030478;28;20048;-76
2021/12/25 06:56:50;;;;;;;1.83;0.82;;;;;;;18.68;45.27;100970.94;5030866;28;20044;-76
2021/12/25 06:59:16;;;;;;;1.65;0.70;;;;;;;18.72;45.50;100967.03;5030335;28;20125;-77
2021/12/25 07:01:41;;;;;;;2.10;0.68;;;;;;;18.71;45.73;100965.34;5030760;28;20041;-77
2021/12/25 07:04:07;;;;;;;2.42;0.70;;;;;;;18.75;45.47;100973.91;4980221;28;20096;-77
2021/12/25 07:06:33;;;;;;;1.15;0.70;;;;;;;18.77;45.32;100977.25;5030707;28;20120;-77
2021/12/25 07:08:58;;;;;;;1.45;0.60;;;;;;;18.77;45.34;100974.59;4996097;28;20444;-77
2021/12/25 07:11:24;;;;;;;1.75;0.55;;;;;;;18.78;45.58;100981.63;5030129;28;20042;-70
2021/12/25 07:13:51;;;;;;;1.23;0.60;;;;;;;18.80;45.48;100985.81;4999793;28;20052;-80
2021/12/25 07:16:16;;;;;;;2.88;0.70;;;;;;;18.80;45.58;100979.66;5005320;28;20041;-77
2021/12/25 07:18:42;;;;;;;1.52;0.45;;;;;;;18.81;44.98;100991.97;5026281;28;20049;-77
2021/12/25 07:21:07;;;;;;;2.20;0.60;;;;;;;18.85;45.72;100988.91;5035770;28;20497;-80
2021/12/25 07:23:33;;;;;;;1.05;0.50;;;;;;;18.88;46.03;100988.63;5051788;28;20484;-78
2021/12/25 07:25:59;;;;;;;8.27;0.88;;;;;;;18.91;45.61;100992.84;5041325;28;20046;-79
2021/12/25 07:28:24;;;;;;;4.63;0.88;;;;;;;18.84;45.29;100997.88;5044578;28;20045;-78
2021/12/25 07:30:54;;;;;;;5.28;0.60;;;;;;;18.91;45.56;101004.31;5010224;28;20063;-77
2021/12/25 07:33:20;;;;;;;2.22;0.68;;;;;;;18.99;46.02;101000.09;5017114;28;20199;-74
2021/12/25 07:35:45;;;;;;;3.95;1.00;;;;;;;18.90;45.46;100999.97;5015943;28;20555;-72
2021/12/25 07:38:11;;;;;;;2.60;0.93;;;;;;;18.99;45.83;101005.41;5029441;28;20033;-77
2021/12/25 07:40:36;;;;;;;26.38;1.88;;;;;;;18.95;46.32;101005.69;5001594;28;20516;-76
2021/12/25 07:43:02;;;;;;;6.65;1.00;;;;;;;18.99;46.18;101006.28;4999674;28;20038;-72
2021/12/25 07:45:28;;;;;;;8.63;3.08;;;;;;;19.05;46.69;101004.88;5030673;28;20048;-81
2021/12/25 07:47:59;;;;;;;20.45;17.38;;;;;;;19.08;46.18;101009.91;5029196;28;20136;-82
2021/12/25 07:50:26;;;;;;;27.27;22.88;;;;;;;19.09;46.26;101006.28;5029394;28;20041;-80
2021/12/25 07:52:51;;;;;;;28.08;22.48;;;;;;;19.10;47.10;101016.78;5021254;28;20041;-80
2021/12/25 07:55:16;;;;;;;23.58;20.98;;;;;;;19.10;47.21;101024.75;5024192;28;20150;-81
2021/12/25 07:57:42;;;;;;;24.98;19.33;;;;;;;19.14;46.84;101020.84;5013806;28;20048;-81
2021/12/25 08:00:09;;;;;;;19.65;17.58;;;;;;;19.13;46.44;101019.16;5040647;28;20049;-83
2021/12/25 08:02:34;;;;;;;19.92;17.15;;;;;;;19.12;46.54;101025.47;5039756;28;20041;-80
2021/12/25 08:05:00;;;;;;;20.90;14.82;;;;;;;19.12;46.89;101036.09;5013390;28;20537;-82
2021/12/25 08:07:25;;;;;;;18.80;14.50;;;;;;;19.15;47.42;101032.34;5010859;28;20053;-82
2021/12/25 08:09:53;;;;;;;15.45;13.07;;;;;;;19.14;46.62;101038.63;5025867;28;20057;-80
2021/12/25 08:12:18;;;;;;;16.33;12.57;;;;;;;19.17;47.18;101031.19;5011375;28;20115;-82
2021/12/25 08:14:43;;;;;;;15.90;12.10;;;;;;;19.19;46.81;101031.06;5028535;28;20457;-81
2021/12/25 08:17:09;;;;;;;15.48;11.30;;;;;;;19.21;46.68;101038.91;5011191;28;20560;-82
2021/12/25 08:19:34;;;;;;;14.88;10.38;;;;;;;19.21;47.16;101039.75;5028279;28;20128;-81
2021/12/25 08:22:00;;;;;;;11.38;9.55;;;;;;;19.21;47.18;101031.78;5028842;28;20603;-83
2021/12/25 08:24:25;;;;;;;17.83;8.68;;;;;;;19.23;47.87;101045.75;5032592;28;20060;-80
2021/12/25 08:26:51;;;;;;;10.68;8.52;;;;;;;19.26;46.71;101044.66;5011039;28;20064;-78
2021/12/25 08:29:16;;;;;;;68.05;32.00;;;;;;;18.98;45.51;101038.31;5016937;28;20049;-77
2021/12/25 08:31:42;;;;;;;62.92;29.08;;;;;;;18.98;46.84;101055.09;5031089;28;20099;-77
2021/12/25 08:34:07;;;;;;;44.70;22.10;;;;;;;18.99;47.18;101061.25;5028305;28;20041;-77
2021/12/25 08:36:33;;;;;;;48.20;21.38;;;;;;;19.04;46.84;101067.00;5011305;28;20077;-71
2021/12/25 08:38:59;;;;;;;41.60;19.92;;;;;;;19.01;46.94;101070.78;5011464;28;20060;-81
2021/12/25 08:41:28;;;;;;;39.63;19.25;;;;;;;19.03;47.22;101073.31;5027252;28;20041;-81
2021/12/25 08:43:57;;;;;;;42.15;19.70;;;;;;;18.98;47.39;101072.88;5043955;28;20060;-81
2021/12/25 08:46:42;;;;;;;38.50;16.30;;;;;;;18.83;46.38;101086.53;5021147;28;20123;-82
2021/12/25 08:49:08;;;;;;;32.42;15.82;;;;;;;18.87;46.48;101097.78;5015144;28;20041;-84
2021/12/25 08:51:34;;;;;;;32.78;15.45;;;;;;;18.87;46.25;101093.28;5010418;28;20055;-83
2021/12/25 08:53:59;;;;;;;28.83;14.77;;;;;;;18.87;46.34;101097.78;5012869;28;20137;-80
2021/12/25 08:56:26;;;;;;;30.08;12.95;;;;;;;18.79;45.88;101094.94;5026508;28;20045;-81
2021/12/25 08:58:52;;;;;;;27.77;13.15;;;;;;;18.81;45.90;101093.81;5029570;28;20049;-82
2021/12/25 09:01:17;;;;;;;27.85;12.63;;;;;;;18.84;46.63;101101.53;5029007;28;20041;-81
2021/12/25 09:03:42;;;;;;;22.67;11.73;;;;;;;18.83;45.95;101102.47;5032043;28;20041;-81
2021/12/25 09:06:08;;;;;;;33.40;11.45;;;;;;;18.82;46.18;101097.31;5027169;28;20048;-82
2021/12/25 09:08:34;;;;;;;24.50;10.73;;;;;;;18.83;46.05;101101.66;5011028;28;20064;-84
2021/12/25 09:11:00;;;;;;;22.65;10.52;;;;;;;18.81;46.09;101103.63;5027373;28;20140;-81
2021/12/25 09:13:26;;;;;;;25.83;10.60;;;;;;;18.78;46.22;101104.72;5009729;28;20073;-83
2021/12/25 09:15:51;;;;;;;21.98;9.90;;;;;;;18.73;45.54;101099.78;5028423;28;20037;-81
2021/12/25 09:18:17;;;;;;;23.05;9.27;;;;;;;18.73;45.55;101110.41;5019605;28;20452;-81
2021/12/25 09:20:42;;;;;;;24.80;9.55;;;;;;;18.72;45.74;101110.53;5048244;28;20582;-79
2021/12/25 09:23:07;;;;;;;20.48;9.23;;;;;;;18.70;45.30;101110.66;5047777;28;20037;-81
2021/12/25 09:25:33;;;;;;;18.02;8.52;;;;;;;18.68;45.23;101112.63;5048090;28;20091;-81
2021/12/25 09:27:59;;;;;;;15.52;8.05;;;;;;;18.66;45.65;101114.56;5030633;28;20126;-82
2021/12/25 09:30:25;;;;;;;18.05;7.97;;;;;;;18.65;45.56;101118.22;5047804;28;20098;-80
2021/12/25 09:32:50;;;;;;;16.88;8.18;;;;;;;18.66;45.71;101124.34;5030593;28;20044;-81
2021/12/25 09:35:16;;;;;;;15.75;7.82;;;;;;;18.61;45.83;101122.09;5029868;28;20480;-82
2021/12/25 09:37:41;;;;;;;16.85;7.88;;;;;;;18.60;45.26;101122.22;5030613;28;20044;-81
2021/12/25 09:40:08;;;;;;;18.85;7.00;;;;;;;18.58;44.79;101130.31;5047932;28;20039;-81
2021/12/25 09:42:35;;;;;;;13.80;6.75;;;;;;;18.40;42.28;101134.56;5042636;28;20060;-71
2021/12/25 09:45:00;;;;;;;14.90;6.47;;;;;;;18.39;44.74;101133.72;5038588;28;20052;-68
2021/12/25 09:47:26;;;;;;;18.00;6.88;;;;;;;18.40;44.40;101130.09;5009864;28;20531;-68
2021/12/25 09:49:51;;;;;;;15.30;5.90;;;;;;;18.47;44.24;101138.38;5034561;28;20132;-68
2021/12/25 09:52:17;;;;;;;12.75;5.35;;;;;;;18.49;44.08;101133.78;5011384;28;20571;-69
2021/12/25 09:54:43;;;;;;;11.73;4.65;;;;;;;18.54;44.69;101139.53;5035246;28;20072;-69
2021/12/25 09:57:08;;;;;;;9.63;4.53;;;;;;;18.53;43.59;101143.19;5028084;28;20124;-68
2021/12/25 09:59:34;;;;;;;10.50;3.97;;;;;;;18.57;44.55;101149.91;4993385;28;20076;-70
2021/12/25 10:05:36;;;;;;;8.95;3.25;;;;;;;18.55;44.88;101151.00;5036894;28;20057;-69
2021/12/25 10:08:24;;;;;;;8.32;3.35;;;;;;;18.54;44.39;101150.16;5027125;28;20045;-67
2021/12/25 10:10:51;;;;;;;7.85;3.08;;;;;;;18.54;44.42;101144.84;5030563;28;20059;-68
2021/12/25 10:13:19;;;;;;;9.57;2.92;;;;;;;18.63;44.89;101152.03;5021492;28;20379;-65
2021/12/25 10:15:45;;;;;;;5.82;2.58;;;;;;;18.66;45.03;101141.16;5035402;28;20048;-81
2021/12/25 10:18:10;;;;;;;6.80;2.63;;;;;;;18.70;45.15;101145.22;5014645;28;20044;-79
2021/12/25 10:20:36;;;;;;;7.47;2.63;;;;;;;18.73;45.42;101138.81;5031149;28;20105;-78
2021/12/25 10:23:14;;;;;;;7.07;2.50;;;;;;;18.78;45.35;101141.09;5016096;28;20041;-80
2021/12/25 10:25:55;;;;;;;7.43;2.20;;;;;;;18.83;45.81;101130.88;5023634;28;20104;-82
2021/12/25 10:28:42;;;;;;;5.93;2.00;;;;;;;18.84;46.03;101135.25;4997449;28;20053;-78
2021/12/25 10:31:10;;;;;;;7.28;2.58;;;;;;;18.87;45.97;101124.34;5030108;28;20034;-77
2021/12/25 10:33:50;;;;;;;7.15;2.13;;;;;;;18.92;45.58;101127.44;5014246;28;20360;-77
2021/12/25 10:36:42;;;;;;;4.38;1.88;;;;;;;18.93;45.38;101123.81;5002006;28;20049;-80
2021/12/25 10:39:07;;;;;;;8.90;2.17;;;;;;;18.91;45.13;101120.44;5023850;28;20061;-79
2021/12/25 10:41:35;;;;;;;7.30;2.17;;;;;;;18.87;45.49;101113.72;5028769;28;20088;-79
2021/12/25 10:44:13;;;;;;;6.68;2.00;;;;;;;18.89;45.47;101122.38;4996509;28;20100;-69
2021/12/25 10:46:54;;;;;;;5.88;1.65;;;;;;;18.85;44.94;101113.00;5031171;28;20153;-79
2021/12/25 10:49:21;;;;;;;6.32;1.85;;;;;;;18.86;44.76;101106.69;5012824;28;20509;-79
2021/12/25 10:51:46;;;;;;;4.88;2.05;;;;;;;18.87;44.70;101111.91;5032870;28;20059;-79
2021/12/25 10:54:14;;;;;;;4.57;1.73;;;;;;;18.94;44.90;101109.53;5015055;28;20053;-77
2021/12/25 10:56:40;;;;;;;6.03;2.22;;;;;;;18.94;45.41;101109.53;5014987;28;20041;-82
2021/12/25 10:59:10;;;;;;;5.63;1.60;;;;;;;18.89;44.71;101111.75;5030367;28;20112;-79
2021/12/25 11:01:42;;;;;;;6.28;1.45;;;;;;;18.95;45.19;101108.53;5032729;28;20041;-79
2021/12/25 11:04:27;;;;;;;5.50;1.83;;;;;;;18.95;45.26;101117.38;5018755;28;20064;-79
2021/12/25 11:06:53;;;;;;;3.58;1.27;;;;;;;18.93;44.78;101119.34;5033961;28;20654;-81
2021/12/25 11:09:18;;;;;;;3.55;1.25;;;;;;;18.95;43.43;101116.53;5030338;28;20058;-76
2021/12/25 11:12:06;;;;;;;5.95;1.20;;;;;;;18.74;39.58;101113.94;4996422;28;20160;-70
2021/12/25 11:14:32;;;;;;;3.83;0.93;;;;;;;18.22;38.12;101108.59;5036475;28;20053;-68
2021/12/25 11:16:57;;;;;;;4.30;1.10;;;;;;;18.44;41.25;101106.78;4988786;28;20045;-68
2021/12/25 11:19:32;;;;;;;3.42;1.17;;;;;;;18.53;42.61;101100.66;4998126;28;20052;-69
2021/12/25 11:21:59;;;;;;;4.07;1.25;;;;;;;18.59;41.45;101116.06;5029137;28;20050;-69
2021/12/25 11:24:26;;;;;;;2.92;0.95;;;;;;;18.71;41.71;101116.84;5012612;28;20041;-69
2021/12/25 11:27:04;;;;;;;2.53;0.95;;;;;;;18.53;40.83;101118.44;5020044;28;20049;-68
2021/12/25 11:29:30;;;;;;;3.22;1.10;;;;;;;18.59;41.74;101116.06;5014407;28;20037;-69
2021/12/25 11:31:56;;;;;;;5.50;1.00;;;;;;;18.67;42.20;101120.72;5029754;28;20053;-70
2021/12/25 11:34:21;;;;;;;4.28;1.00;;;;;;;18.71;42.94;101109.72;5028493;28;20042;-70
2021/12/25 11:36:48;;;;;;;3.55;0.90;;;;;;;18.75;42.31;101112.13;5011620;28;20144;-68
2021/12/25 11:39:19;;;;;;;3.55;1.10;;;;;;;18.69;40.39;101110.81;5002752;28;20493;-68
2021/12/25 11:41:45;;;;;;;2.85;0.90;;;;;;;18.75;42.76;101112.97;5042658;28;20076;-68
2021/12/25 11:44:41;;;;;;;2.97;0.80;;;;;;;18.81;41.79;101107.13;5009372;28;20047;-68
2021/12/25 11:47:07;;;;;;;2.55;0.80;;;;;;;18.79;42.30;101103.75;5036571;28;20500;-67
2021/12/25 11:49:33;;;;;;;1.65;0.70;;;;;;;18.78;42.58;101112.69;5041545;28;20068;-68
2021/12/25 11:52:15;;;;;;;3.20;0.77;;;;;;;18.61;38.35;101111.47;5014771;28;20087;-68
2021/12/25 11:55:09;;;;;;;2.78;0.60;;;;;;;18.53;39.70;101113.94;4986974;28;20127;-69
2021/12/25 12:00:25;;;;;;;4.40;0.80;;;;;;;18.68;41.58;101107.31;5011729;28;20046;-80
2021/12/25 12:02:50;;;;;;;2.20;0.70;;;;;;;18.79;42.13;101110.88;5006617;28;20072;-81
2021/12/25 12:05:17;;;;;;;4.15;0.70;;;;;;;18.82;42.04;101094.66;5033201;28;20568;-81
2021/12/25 12:08:06;;;;;;;7.22;0.73;;;;;;;18.85;41.14;101105.03;5030120;28;20048;-76
2021/12/25 12:10:43;;;;;;;4.70;0.80;;;;;;;18.82;41.54;101098.16;5033341;28;20786;-78
2021/12/25 12:13:22;;;;;;;3.97;0.80;;;;;;;18.87;41.46;101103.09;5029789;28;20048;-77
2021/12/25 12:15:50;;;;;;;2.15;0.60;;;;;;;18.87;41.49;101082.66;5031810;28;20045;-76
2021/12/25 12:18:24;;;;;;;4.05;0.50;;;;;;;18.90;41.91;101095.69;5004726;28;20076;-76
2021/12/25 12:20:50;;;;;;;3.42;0.70;;;;;;;18.90;42.08;101092.19;5027867;28;20118;-83
2021/12/25 12:24:09;;;;;;;4.10;0.70;;;;;;;18.88;42.64;101096.78;5028510;28;20057;-78
2021/12/25 12:26:53;;;;;;;2.43;0.50;;;;;;;18.88;42.02;101097.63;5019219;28;20042;-78
2021/12/25 12:29:37;;;;;;;4.40;0.60;;;;;;;18.91;42.27;101093.84;5016515;28;20049;-78
2021/12/25 12:32:02;;;;;;;8.05;0.70;;;;;;;18.93;42.31;101100.72;5037357;28;20045;-78